Lhunze, China
Current Conditions -  °F | °C
As of 9:20 PM on Thursday 30 Oct 2014 (Local Time) from VGHS Reporting Station
Haze Haze  
Wind Chill: 77°   Ceiling: Unl
Heat Index: 79°   Visibility: 2.5mi
Dew Point: 64°   Wind: 0mph
Humidity: 65%   Direction: NA
Pressure: 29.83"   Gusts: NA
Location:  28.42°N, 92.47°E
Report Text: VGHS 301320Z 00000KT 4000 HZ NSC 25/18 Q1010 NOSIG
Loading
Personal Weather Stations






























Interactive Weather Map
Tropical Storm Tracking
New forecast layout! Learn more

10-Day Weather Forecast

Advertisements
Track Severe Weather on mobile